Terminal Aerodrome Forecast
Issued by NWS

Home | Current Version | Previous Version | Text Only | Print | Product List | Glossary On
Versions: 1 2 3 4 5 6 7 8 9 10 11 12 13 14
000
FTPA31 PHFO 252340
TAFHNY
TAF
PHNY 252340Z 2600/2624 25006KT P6SM VCSH BKN015 OVC035
     FM260400 VRB05KT P6SM SCT015 BKN035
     FM261900 29007KT P6SM BKN020=

USA.gov is the U.S. government's official web portal to all federal, state and local government web resources and services.